createdAt,value
2019-02-16T00:01:17.199Z,9.60
2019-02-16T00:03:47.617Z,7.90
2019-02-16T00:06:18.053Z,6.42
2019-02-16T00:08:48.459Z,6.17
2019-02-16T00:11:18.855Z,5.92
2019-02-16T00:13:49.231Z,5.70
2019-02-16T00:16:19.595Z,5.70
2019-02-16T00:18:49.976Z,5.70
2019-02-16T00:21:20.362Z,4.62
2019-02-16T00:23:50.781Z,4.70
2019-02-16T00:26:21.153Z,4.75
2019-02-16T00:28:51.519Z,4.40
2019-02-16T00:31:21.902Z,4.28
2019-02-16T00:33:52.263Z,5.00
2019-02-16T00:36:22.658Z,4.22
2019-02-16T00:38:54.250Z,5.00
2019-02-16T00:41:24.794Z,4.70
2019-02-16T00:43:55.186Z,4.37
2019-02-16T00:46:25.613Z,4.15
2019-02-16T00:48:55.986Z,4.03
2019-02-16T00:51:26.449Z,3.83
2019-02-16T00:53:56.813Z,4.15
2019-02-16T00:56:27.175Z,3.52
2019-02-16T00:58:57.578Z,4.37
2019-02-16T01:01:27.977Z,3.40
2019-02-16T01:03:59.214Z,4.47
2019-02-16T01:06:29.624Z,3.72
2019-02-16T01:09:00.018Z,4.12
2019-02-16T01:11:30.391Z,4.35
2019-02-16T01:14:00.807Z,3.75
2019-02-16T01:16:31.167Z,3.90
2019-02-16T01:19:01.561Z,3.83
2019-02-16T01:21:31.930Z,3.65
2019-02-16T01:24:02.311Z,5.65
2019-02-16T01:26:32.692Z,4.35
2019-02-16T01:29:03.059Z,3.62
2019-02-16T01:31:33.438Z,3.10
2019-02-16T01:34:03.809Z,3.58
2019-02-16T01:36:34.186Z,3.72
2019-02-16T01:39:05.121Z,4.25
2019-02-16T01:41:35.487Z,4.22
2019-02-16T01:44:05.981Z,3.87
2019-02-16T01:46:36.383Z,4.72
2019-02-16T01:49:06.767Z,3.80
2019-02-16T01:51:37.150Z,2.95
2019-02-16T01:54:07.586Z,4.60
2019-02-16T01:56:37.943Z,3.80
2019-02-16T01:59:08.315Z,3.70
2019-02-16T02:01:38.669Z,4.47
2019-02-16T02:04:09.164Z,4.17
2019-02-16T02:06:39.545Z,4.28
2019-02-16T02:09:12.097Z,3.58
2019-02-16T02:11:42.028Z,3.92
2019-02-16T02:14:12.458Z,3.50
2019-02-16T02:16:42.809Z,4.90
2019-02-16T02:19:13.203Z,4.72
2019-02-16T02:21:43.563Z,5.67
2019-02-16T02:24:13.981Z,5.20
2019-02-16T02:26:44.507Z,5.10
2019-02-16T02:29:14.862Z,5.10
2019-02-16T02:31:45.222Z,5.60
2019-02-16T02:34:15.630Z,4.87
2019-02-16T02:36:46.069Z,5.50
2019-02-16T02:39:16.433Z,3.83
2019-02-16T02:41:47.262Z,4.83
2019-02-16T02:44:17.769Z,4.30
2019-02-16T02:46:48.153Z,4.65
2019-02-16T02:49:18.558Z,4.87
2019-02-16T02:51:52.177Z,4.65
2019-02-16T02:54:21.031Z,4.83
2019-02-16T02:56:51.384Z,4.10
2019-02-16T02:59:21.765Z,4.85
2019-02-16T03:01:52.126Z,4.97
2019-02-16T03:04:22.477Z,5.28
2019-02-16T03:06:52.888Z,4.70
2019-02-16T03:09:23.430Z,5.87
2019-02-16T03:11:53.854Z,7.17
2019-02-16T03:14:24.233Z,7.92
2019-02-16T03:16:54.621Z,10.45
2019-02-16T03:19:25.115Z,8.63
2019-02-16T03:22:02.490Z,9.00
2019-02-16T03:24:27.570Z,9.45
2019-02-16T03:27:47.786Z,9.23
2019-02-16T03:30:55.061Z,9.25
2019-02-16T03:33:46.310Z,8.45
2019-02-16T03:36:53.563Z,7.85
2019-02-16T03:39:36.962Z,7.42
2019-02-16T03:42:07.329Z,8.88
2019-02-16T03:44:37.688Z,9.00
2019-02-16T03:47:08.066Z,9.33
2019-02-16T03:49:38.442Z,7.30
2019-02-16T03:52:13.771Z,6.75
2019-02-16T03:54:40.962Z,5.75
2019-02-16T03:57:11.438Z,5.80
2019-02-16T03:59:41.887Z,11.53
2019-02-16T04:02:12.234Z,5.35
2019-02-16T04:04:42.603Z,5.95
2019-02-16T04:07:12.978Z,4.55
2019-02-16T04:09:43.341Z,3.80
2019-02-16T04:12:13.771Z,5.22
2019-02-16T04:14:44.156Z,5.25
2019-02-16T04:17:14.542Z,5.35
2019-02-16T04:19:44.922Z,4.87
2019-02-16T04:22:24.154Z,4.72
2019-02-16T04:24:47.306Z,5.33
2019-02-16T04:27:17.652Z,5.10
2019-02-16T04:29:47.998Z,4.35
2019-02-16T04:32:18.362Z,4.50
2019-02-16T04:34:48.836Z,5.30
2019-02-16T04:37:19.193Z,4.80
2019-02-16T04:39:49.560Z,4.37
2019-02-16T04:42:19.906Z,5.47
2019-02-16T04:44:50.281Z,4.20
2019-02-16T04:47:20.621Z,5.67
2019-02-16T04:49:50.966Z,4.92
2019-02-16T04:52:21.314Z,4.70
2019-02-16T04:54:51.694Z,5.05
2019-02-16T04:57:22.231Z,4.60
2019-02-16T04:59:52.602Z,5.03
2019-02-16T05:02:22.953Z,4.50
2019-02-16T05:04:53.294Z,4.70
2019-02-16T05:07:23.655Z,4.85
2019-02-16T05:09:54.001Z,4.58
2019-02-16T05:12:24.389Z,4.58
2019-02-16T05:14:54.838Z,4.45
2019-02-16T05:17:25.200Z,4.37
2019-02-16T05:19:55.541Z,5.00
2019-02-16T05:22:25.899Z,4.60
2019-02-16T05:24:56.254Z,5.50
2019-02-16T05:27:26.605Z,4.60
2019-02-16T05:29:57.073Z,5.10
2019-02-16T05:32:27.514Z,4.72
2019-02-16T05:34:57.948Z,4.67
2019-02-16T05:37:30.436Z,5.28
2019-02-16T05:40:00.352Z,4.75
2019-02-16T05:42:30.694Z,5.25
2019-02-16T05:45:01.056Z,4.83
2019-02-16T05:47:31.414Z,4.75
2019-02-16T05:50:01.821Z,5.33
2019-02-16T05:52:32.177Z,4.10
2019-02-16T05:55:02.536Z,4.67
2019-02-16T05:57:32.961Z,5.03
2019-02-16T06:00:03.318Z,4.53
2019-02-16T06:02:33.765Z,4.92
2019-02-16T06:05:04.098Z,5.22
2019-02-16T06:07:34.447Z,4.45
2019-02-16T06:10:05.533Z,5.17
2019-02-16T06:12:35.927Z,5.25
2019-02-16T06:15:07.252Z,4.95
2019-02-16T06:17:37.629Z,5.22
2019-02-16T06:20:08.211Z,5.33
2019-02-16T06:22:38.590Z,4.85
2019-02-16T06:25:08.938Z,5.08
2019-02-16T06:27:39.394Z,5.33
2019-02-16T06:30:09.745Z,4.53
2019-02-16T06:32:40.123Z,5.75
2019-02-16T06:35:29.530Z,5.85
2019-02-16T06:38:00.079Z,5.22
2019-02-16T06:40:30.654Z,5.95
2019-02-16T06:43:01.046Z,5.20
2019-02-16T06:45:31.388Z,5.95
2019-02-16T06:48:01.743Z,7.47
2019-02-16T06:50:36.868Z,5.80
2019-02-16T06:53:12.611Z,6.53
2019-02-16T06:55:44.334Z,7.12
2019-02-16T06:58:14.735Z,6.62
2019-02-16T07:00:45.081Z,8.28
2019-02-16T07:03:15.462Z,7.37
2019-02-16T07:05:45.836Z,6.47
2019-02-16T07:08:16.212Z,6.15
2019-02-16T07:10:46.581Z,7.42
2019-02-16T07:13:16.969Z,5.92
2019-02-16T07:16:06.290Z,7.08
2019-02-16T07:18:45.018Z,6.05
2019-02-16T07:21:15.488Z,6.45
2019-02-16T07:23:45.873Z,6.45
2019-02-16T07:26:16.333Z,7.10
2019-02-16T07:28:46.802Z,5.97
2019-02-16T07:31:17.170Z,5.97
2019-02-16T07:33:47.526Z,5.97
2019-02-16T07:36:18.002Z,6.05
2019-02-16T07:38:48.365Z,6.67
2019-02-16T07:41:18.730Z,6.90
2019-02-16T07:44:08.029Z,6.47
2019-02-16T07:46:48.402Z,6.08
2019-02-16T07:49:26.734Z,6.15
2019-02-16T07:52:14.757Z,6.40
2019-02-16T07:54:55.557Z,6.75
2019-02-16T07:57:31.604Z,6.17
2019-02-16T08:00:15.985Z,6.55
2019-02-16T08:02:59.236Z,8.13
2019-02-16T08:05:47.449Z,5.90
2019-02-16T08:08:35.602Z,6.67
2019-02-16T08:11:43.206Z,6.30
2019-02-16T08:14:35.377Z,7.25
2019-02-16T08:17:21.203Z,6.85
2019-02-16T08:20:19.915Z,7.60
2019-02-16T08:23:15.065Z,8.25
2019-02-16T08:26:16.454Z,8.48
2019-02-16T08:29:05.760Z,7.45
2019-02-16T08:31:42.002Z,8.43
2019-02-16T08:34:40.164Z,8.08
2019-02-16T08:37:32.365Z,7.25
2019-02-16T08:40:11.250Z,7.20
2019-02-16T08:43:15.687Z,7.70
2019-02-16T08:46:04.982Z,7.90
2019-02-16T08:49:03.552Z,9.43
2019-02-16T08:52:04.912Z,8.75
2019-02-16T08:54:42.701Z,7.85
2019-02-16T08:57:31.000Z,8.45
2019-02-16T09:00:26.891Z,7.92
2019-02-16T09:03:19.102Z,8.93
2019-02-16T09:05:59.854Z,9.45
2019-02-16T09:08:49.170Z,9.38
2019-02-16T09:11:37.343Z,8.60
2019-02-16T09:14:21.737Z,8.65
2019-02-16T09:17:09.991Z,8.73
2019-02-16T09:19:59.034Z,9.30
2019-02-16T09:22:35.097Z,9.55
2019-02-16T09:25:15.474Z,8.90
2019-02-16T09:27:54.589Z,8.20
2019-02-16T09:30:40.912Z,10.08
2019-02-16T09:33:25.243Z,9.68
2019-02-16T09:36:13.107Z,8.83
2019-02-16T09:39:05.456Z,9.23
2019-02-16T09:41:58.913Z,9.33
2019-02-16T09:44:48.229Z,10.10
2019-02-16T09:47:39.277Z,9.70
2019-02-16T09:50:42.112Z,10.13
2019-02-16T09:53:25.490Z,9.50
2019-02-16T09:56:12.153Z,8.97
2019-02-16T09:59:03.621Z,9.53
2019-02-16T10:01:55.995Z,10.00
2019-02-16T10:04:37.844Z,9.77
2019-02-16T10:07:30.594Z,9.00
2019-02-16T10:10:29.383Z,10.20
2019-02-16T10:13:22.223Z,9.53
2019-02-16T10:16:17.429Z,9.57
2019-02-16T10:19:02.181Z,8.80
2019-02-16T10:21:57.877Z,9.70
2019-02-16T10:24:45.913Z,8.77
2019-02-16T10:27:34.967Z,9.03
2019-02-16T10:30:20.103Z,9.63
2019-02-16T10:33:10.880Z,10.20
2019-02-16T10:35:58.951Z,9.40
2019-02-16T10:38:37.734Z,9.73
2019-02-16T10:41:29.882Z,9.37
2019-02-16T10:44:22.221Z,9.93
2019-02-16T10:47:14.326Z,9.50
2019-02-16T10:49:55.853Z,9.70
2019-02-16T10:52:43.955Z,9.20
2019-02-16T10:55:48.611Z,9.77
2019-02-16T10:58:47.139Z,9.40
2019-02-16T11:01:45.866Z,9.60
2019-02-16T11:04:40.019Z,8.80
2019-02-16T11:07:32.431Z,10.10
2019-02-16T11:10:30.574Z,8.93
2019-02-16T11:13:13.122Z,8.40
2019-02-16T11:16:11.687Z,8.63
2019-02-16T11:19:06.902Z,8.67
2019-02-16T11:21:44.894Z,7.93
2019-02-16T11:24:40.298Z,8.13
2019-02-16T11:27:25.390Z,8.27
2019-02-16T11:30:13.610Z,8.60
2019-02-16T11:33:01.294Z,7.40
2019-02-16T11:35:40.453Z,7.20
2019-02-16T11:38:40.450Z,7.97
2019-02-16T11:41:29.793Z,7.53
2019-02-16T11:44:13.453Z,6.40
2019-02-16T11:47:14.630Z,5.93
2019-02-16T11:49:51.171Z,7.00
2019-02-16T11:52:40.550Z,6.80
2019-02-16T11:55:20.512Z,5.87
2019-02-16T11:58:06.261Z,6.00
2019-02-16T12:01:02.734Z,6.23
2019-02-16T12:04:01.261Z,6.90
2019-02-16T12:06:53.447Z,7.00
2019-02-16T12:09:48.606Z,6.43
2019-02-16T12:12:40.718Z,6.40
2019-02-16T12:15:30.067Z,6.00
2019-02-16T12:18:18.150Z,6.80
2019-02-16T12:21:25.806Z,6.20
2019-02-16T12:24:15.179Z,6.40
2019-02-16T12:27:13.441Z,6.93
2019-02-16T12:29:49.357Z,6.00
2019-02-16T12:32:42.073Z,5.83
2019-02-16T12:35:37.242Z,7.13
2019-02-16T12:38:17.120Z,4.87
2019-02-16T12:41:18.779Z,5.37
2019-02-16T12:44:06.779Z,5.17
2019-02-16T12:46:56.144Z,4.90
2019-02-16T12:49:44.683Z,5.90
2019-02-16T12:52:29.041Z,4.97
2019-02-16T12:55:15.153Z,5.40
2019-02-16T12:57:51.098Z,5.13
2019-02-16T13:00:49.692Z,5.70
2019-02-16T13:03:37.644Z,4.93
2019-02-16T13:06:20.618Z,4.90
2019-02-16T13:08:56.627Z,3.90
2019-02-16T13:11:44.543Z,4.40
2019-02-16T13:14:43.110Z,5.40
2019-02-16T13:17:35.500Z,4.90
2019-02-16T13:20:16.267Z,4.10
2019-02-16T13:23:05.592Z,4.50
2019-02-16T13:25:41.242Z,4.80
2019-02-16T13:28:30.574Z,3.87
2019-02-16T13:31:18.706Z,4.00
2019-02-16T13:33:53.791Z,3.90
2019-02-16T13:36:49.008Z,3.50
2019-02-16T13:39:37.286Z,3.73
2019-02-16T13:42:21.945Z,3.87
2019-02-16T13:45:10.978Z,3.13
2019-02-16T13:48:03.204Z,3.30
2019-02-16T13:50:48.517Z,3.30
2019-02-16T13:53:37.828Z,3.90
2019-02-16T13:56:24.101Z,3.27
2019-02-16T13:59:09.495Z,3.60
2019-02-16T14:01:56.105Z,3.00
2019-02-16T14:04:48.411Z,2.87
2019-02-16T14:07:40.827Z,2.93
2019-02-16T14:10:42.428Z,3.20
2019-02-16T14:13:38.043Z,3.60
2019-02-16T14:16:25.481Z,3.90
2019-02-16T14:18:55.902Z,3.07
2019-02-16T14:21:26.395Z,3.73
2019-02-16T14:23:56.946Z,2.80
2019-02-16T14:26:27.395Z,3.53
2019-02-16T14:28:57.777Z,2.87
2019-02-16T14:31:28.784Z,3.67
2019-02-16T14:33:59.319Z,2.70
2019-02-16T14:36:29.717Z,2.90
2019-02-16T14:39:11.509Z,2.30
2019-02-16T14:41:42.005Z,3.00
2019-02-16T14:44:12.374Z,2.10
2019-02-16T14:46:42.790Z,2.60
2019-02-16T14:49:13.171Z,2.17
2019-02-16T14:51:43.561Z,2.17
2019-02-16T14:54:13.950Z,1.60
2019-02-16T14:56:44.342Z,1.97
2019-02-16T14:59:14.805Z,2.10
2019-02-16T15:01:45.271Z,1.87
2019-02-16T15:04:16.904Z,2.13
2019-02-16T15:06:47.374Z,2.03
2019-02-16T15:09:17.806Z,1.90
2019-02-16T15:11:48.254Z,1.80
2019-02-16T15:14:18.721Z,1.83
2019-02-16T15:16:49.114Z,1.80
2019-02-16T15:19:19.537Z,2.50
2019-02-16T15:21:49.921Z,2.87
2019-02-16T15:24:20.394Z,3.93
2019-02-16T15:26:50.882Z,3.43
2019-02-16T15:29:22.267Z,4.23
2019-02-16T15:31:52.818Z,3.13
2019-02-16T15:34:23.279Z,3.77
2019-02-16T15:36:53.704Z,3.83
2019-02-16T15:39:24.221Z,3.70
2019-02-16T15:41:54.608Z,4.03
2019-02-16T15:44:25.044Z,3.10
2019-02-16T15:46:55.445Z,3.07
2019-02-16T15:49:25.822Z,3.30
2019-02-16T15:51:56.193Z,2.90
2019-02-16T15:54:26.579Z,3.70
2019-02-16T15:56:56.958Z,3.57
2019-02-16T15:59:35.079Z,3.07
2019-02-16T16:01:59.422Z,3.53
2019-02-16T16:04:48.885Z,4.60
2019-02-16T16:07:19.369Z,4.57
2019-02-16T16:10:14.861Z,4.03
2019-02-16T16:13:16.201Z,5.00
2019-02-16T16:16:17.610Z,3.30
2019-02-16T16:19:06.106Z,4.87
2019-02-16T16:21:54.241Z,4.50
2019-02-16T16:24:36.462Z,4.50
2019-02-16T16:27:25.758Z,4.30
2019-02-16T16:30:13.942Z,4.23
2019-02-16T16:33:02.063Z,5.00
2019-02-16T16:35:57.222Z,4.70
2019-02-16T16:38:52.438Z,4.97
2019-02-16T16:41:31.853Z,5.07
2019-02-16T16:44:19.822Z,5.23
2019-02-16T16:47:07.751Z,4.10
2019-02-16T16:50:05.922Z,5.23
2019-02-16T16:52:42.879Z,3.70
2019-02-16T16:55:30.006Z,4.50
2019-02-16T16:58:08.107Z,4.57
2019-02-16T17:00:56.096Z,4.83
2019-02-16T17:03:45.838Z,6.50
2019-02-16T17:06:44.102Z,4.77
2019-02-16T17:09:34.018Z,4.90
2019-02-16T17:12:21.925Z,4.67
2019-02-16T17:15:02.290Z,4.87
2019-02-16T17:17:49.829Z,6.13
2019-02-16T17:20:35.726Z,10.03
2019-02-16T17:23:17.966Z,7.10
2019-02-16T17:26:13.435Z,6.20
2019-02-16T17:29:01.406Z,7.10
2019-02-16T17:31:50.448Z,7.27
2019-02-16T17:34:43.114Z,6.20
2019-02-16T17:37:23.271Z,5.63
2019-02-16T17:40:05.570Z,5.73
2019-02-16T17:42:53.216Z,5.93
2019-02-16T17:45:48.433Z,4.70
2019-02-16T17:48:31.243Z,5.40
2019-02-16T17:51:29.438Z,5.30
2019-02-16T17:54:21.558Z,4.30
2019-02-16T17:57:00.398Z,4.60
2019-02-16T17:59:49.833Z,6.43
2019-02-16T18:02:30.421Z,5.47
2019-02-16T18:05:26.026Z,6.17
2019-02-16T18:08:06.198Z,5.70
2019-02-16T18:10:55.302Z,5.60
2019-02-16T18:13:44.626Z,6.67
2019-02-16T18:16:21.818Z,6.27
2019-02-16T18:18:58.499Z,7.13
2019-02-16T18:21:37.185Z,7.27
2019-02-16T18:24:41.564Z,8.30
2019-02-16T18:27:35.502Z,7.03
2019-02-16T18:30:37.025Z,7.00
2019-02-16T18:33:23.710Z,8.53
2019-02-16T18:36:18.809Z,8.57
2019-02-16T18:39:14.325Z,8.67
2019-02-16T18:42:16.170Z,6.80
2019-02-16T18:44:58.089Z,11.00
2019-02-16T18:47:47.521Z,8.00
2019-02-16T18:50:35.578Z,9.18
2019-02-16T18:53:40.234Z,7.65
2019-02-16T18:56:21.415Z,7.20
2019-02-16T18:59:09.614Z,7.20
2019-02-16T19:01:59.426Z,8.95
2019-02-16T19:04:57.724Z,8.33
2019-02-16T19:07:37.588Z,8.55
2019-02-16T19:10:30.254Z,9.70
2019-02-16T19:13:09.842Z,9.80
2019-02-16T19:16:11.346Z,10.78
2019-02-16T19:19:00.747Z,10.60
2019-02-16T19:22:07.345Z,11.63
2019-02-16T19:25:02.952Z,10.20
2019-02-16T19:27:51.534Z,11.33
2019-02-16T19:30:42.743Z,9.58
2019-02-16T19:33:30.974Z,10.30
2019-02-16T19:36:09.915Z,9.55
2019-02-16T19:38:58.194Z,10.25
2019-02-16T19:41:37.404Z,9.83
2019-02-16T19:44:23.539Z,9.20
2019-02-16T19:47:05.317Z,10.58
2019-02-16T19:50:06.911Z,9.75
2019-02-16T19:52:55.246Z,8.70
2019-02-16T19:55:47.354Z,8.90
2019-02-16T19:58:29.458Z,10.23
2019-02-16T20:01:37.017Z,9.85
2019-02-16T20:04:26.391Z,9.95
2019-02-16T20:07:10.347Z,9.90
2019-02-16T20:10:05.891Z,8.33
2019-02-16T20:12:55.324Z,8.90
2019-02-16T20:15:47.974Z,10.63
2019-02-16T20:18:44.691Z,14.18
2019-02-16T20:21:43.474Z,13.40
2019-02-16T20:24:27.079Z,12.40
2019-02-16T20:27:14.532Z,12.85
2019-02-16T20:29:56.509Z,12.47
2019-02-16T20:32:55.245Z,12.20
2019-02-16T20:35:35.183Z,12.35
2019-02-16T20:38:20.750Z,11.68
2019-02-16T20:41:02.126Z,11.53
2019-02-16T20:43:41.759Z,12.82
2019-02-16T20:46:43.489Z,12.13
2019-02-16T20:49:24.433Z,11.03
2019-02-16T20:52:13.735Z,10.08
2019-02-16T20:55:01.934Z,9.55
2019-02-16T20:57:51.343Z,10.32
2019-02-16T21:00:52.634Z,9.33
2019-02-16T21:03:43.484Z,10.65
2019-02-16T21:06:36.214Z,9.63
2019-02-16T21:09:26.024Z,9.80
2019-02-16T21:12:14.006Z,9.95
2019-02-16T21:15:09.435Z,9.30
2019-02-16T21:18:03.950Z,10.10
2019-02-16T21:20:52.201Z,9.50
2019-02-16T21:23:44.550Z,9.38
2019-02-16T21:26:36.609Z,9.85
2019-02-16T21:29:37.218Z,10.80
2019-02-16T21:32:26.647Z,9.45
2019-02-16T21:35:16.059Z,11.38
2019-02-16T21:38:14.604Z,9.40
2019-02-16T21:41:19.009Z,9.93
2019-02-16T21:44:08.458Z,10.38
2019-02-16T21:47:09.914Z,10.43
2019-02-16T21:49:53.962Z,13.10
2019-02-16T21:52:42.376Z,12.15
2019-02-16T21:55:30.298Z,12.55
2019-02-16T21:58:18.360Z,14.25
2019-02-16T22:01:13.439Z,13.32
2019-02-16T22:04:08.551Z,12.55
2019-02-16T22:06:48.811Z,13.78
2019-02-16T22:09:36.502Z,12.88
2019-02-16T22:12:12.821Z,13.80
2019-02-16T22:14:43.250Z,13.83
2019-02-16T22:17:13.723Z,12.88
2019-02-16T22:19:44.102Z,14.75
2019-02-16T22:22:14.505Z,13.20
2019-02-16T22:24:44.898Z,13.95
2019-02-16T22:27:15.324Z,13.62
2019-02-16T22:29:45.705Z,12.98
2019-02-16T22:32:16.091Z,12.82
2019-02-16T22:34:46.494Z,15.13
2019-02-16T22:37:16.881Z,16.35
2019-02-16T22:39:47.367Z,16.85
2019-02-16T22:42:19.466Z,17.05
2019-02-16T22:44:49.913Z,16.17
2019-02-16T22:47:20.383Z,16.00
2019-02-16T22:49:50.796Z,14.90
2019-02-16T22:52:21.162Z,17.27
2019-02-16T22:54:51.581Z,14.98
2019-02-16T22:57:22.097Z,15.85
2019-02-16T22:59:52.510Z,15.55
2019-02-16T23:02:22.970Z,14.35
2019-02-16T23:04:53.379Z,14.03
2019-02-16T23:07:23.859Z,12.35
2019-02-16T23:09:54.273Z,10.88
2019-02-16T23:12:24.731Z,11.10
2019-02-16T23:14:55.132Z,11.05
2019-02-16T23:17:25.539Z,9.78
2019-02-16T23:19:58.966Z,10.30
2019-02-16T23:22:29.408Z,9.45
2019-02-16T23:24:59.813Z,11.68
2019-02-16T23:27:30.233Z,11.55
2019-02-16T23:30:00.611Z,11.40
2019-02-16T23:32:31.079Z,10.20
2019-02-16T23:35:01.464Z,11.95
2019-02-16T23:37:31.871Z,14.98
2019-02-16T23:40:02.427Z,13.30
2019-02-16T23:42:32.865Z,12.58
2019-02-16T23:45:03.338Z,12.50
2019-02-16T23:47:33.715Z,14.70
2019-02-16T23:50:04.439Z,13.95
2019-02-16T23:52:34.898Z,15.28
2019-02-16T23:55:05.627Z,14.50
2019-02-16T23:57:35.993Z,14.35
